sensor_id;sensor_type;location;lat;lon;timestamp;temperature;humidity
37560;DHT22;23398;50.928;7.084;2023-01-20T00:02:08;5.30;79.30
37560;DHT22;23398;50.928;7.084;2023-01-20T00:04:34;5.20;79.30
37560;DHT22;23398;50.928;7.084;2023-01-20T00:07:00;5.20;79.60
37560;DHT22;23398;50.928;7.084;2023-01-20T00:09:25;5.20;80.00
37560;DHT22;23398;50.928;7.084;2023-01-20T00:11:51;5.10;80.20
37560;DHT22;23398;50.928;7.084;2023-01-20T00:14:16;5.10;80.20
37560;DHT22;23398;50.928;7.084;2023-01-20T00:16:42;5.10;80.00
37560;DHT22;23398;50.928;7.084;2023-01-20T00:19:12;5.00;79.40
37560;DHT22;23398;50.928;7.084;2023-01-20T00:21:39;4.90;78.80
37560;DHT22;23398;50.928;7.084;2023-01-20T00:24:05;4.90;78.50
37560;DHT22;23398;50.928;7.084;2023-01-20T00:26:30;4.80;78.70
37560;DHT22;23398;50.928;7.084;2023-01-20T00:28:56;4.80;79.20
37560;DHT22;23398;50.928;7.084;2023-01-20T00:31:26;4.70;79.50
37560;DHT22;23398;50.928;7.084;2023-01-20T00:33:55;4.70;79.80
37560;DHT22;23398;50.928;7.084;2023-01-20T00:36:22;4.70;79.70
37560;DHT22;23398;50.928;7.084;2023-01-20T00:38:48;4.60;79.60
37560;DHT22;23398;50.928;7.084;2023-01-20T00:41:14;4.60;79.80
37560;DHT22;23398;50.928;7.084;2023-01-20T00:43:39;4.60;80.10
37560;DHT22;23398;50.928;7.084;2023-01-20T00:46:05;4.60;80.30
37560;DHT22;23398;50.928;7.084;2023-01-20T00:48:32;4.50;80.40
37560;DHT22;23398;50.928;7.084;2023-01-20T00:50:57;4.50;80.70
37560;DHT22;23398;50.928;7.084;2023-01-20T00:53:23;4.50;81.10
37560;DHT22;23398;50.928;7.084;2023-01-20T00:55:49;4.50;81.50
37560;DHT22;23398;50.928;7.084;2023-01-20T00:58:14;4.50;81.90
37560;DHT22;23398;50.928;7.084;2023-01-20T01:00:40;4.60;82.00
37560;DHT22;23398;50.928;7.084;2023-01-20T01:03:06;4.60;82.10
37560;DHT22;23398;50.928;7.084;2023-01-20T01:05:32;4.60;82.20
37560;DHT22;23398;50.928;7.084;2023-01-20T01:07:57;4.60;82.30
37560;DHT22;23398;50.928;7.084;2023-01-20T01:10:23;4.70;82.50
37560;DHT22;23398;50.928;7.084;2023-01-20T01:12:49;4.70;82.60
37560;DHT22;23398;50.928;7.084;2023-01-20T01:15:14;4.70;82.70
37560;DHT22;23398;50.928;7.084;2023-01-20T01:17:41;4.80;82.80
37560;DHT22;23398;50.928;7.084;2023-01-20T01:20:10;4.80;82.90
37560;DHT22;23398;50.928;7.084;2023-01-20T01:22:35;4.80;82.80
37560;DHT22;23398;50.928;7.084;2023-01-20T01:25:01;4.90;82.90
37560;DHT22;23398;50.928;7.084;2023-01-20T01:27:27;4.90;82.90
37560;DHT22;23398;50.928;7.084;2023-01-20T01:29:53;5.00;82.80
37560;DHT22;23398;50.928;7.084;2023-01-20T01:32:18;5.00;82.50
37560;DHT22;23398;50.928;7.084;2023-01-20T01:34:44;5.00;82.40
37560;DHT22;23398;50.928;7.084;2023-01-20T01:37:10;5.10;82.50
37560;DHT22;23398;50.928;7.084;2023-01-20T01:39:35;5.10;82.70
37560;DHT22;23398;50.928;7.084;2023-01-20T01:42:01;5.10;82.90
37560;DHT22;23398;50.928;7.084;2023-01-20T01:44:26;5.20;83.10
37560;DHT22;23398;50.928;7.084;2023-01-20T01:46:52;5.30;83.40
37560;DHT22;23398;50.928;7.084;2023-01-20T01:49:23;5.30;83.20
37560;DHT22;23398;50.928;7.084;2023-01-20T01:51:57;5.30;82.80
37560;DHT22;23398;50.928;7.084;2023-01-20T01:54:28;5.40;83.00
37560;DHT22;23398;50.928;7.084;2023-01-20T01:56:55;5.40;81.00
37560;DHT22;23398;50.928;7.084;2023-01-20T01:59:20;5.40;80.10
37560;DHT22;23398;50.928;7.084;2023-01-20T02:01:51;5.40;79.40
37560;DHT22;23398;50.928;7.084;2023-01-20T02:04:19;5.30;78.50
37560;DHT22;23398;50.928;7.084;2023-01-20T02:06:50;5.20;78.00
37560;DHT22;23398;50.928;7.084;2023-01-20T02:09:16;5.10;77.50
37560;DHT22;23398;50.928;7.084;2023-01-20T02:11:46;5.00;77.40
37560;DHT22;23398;50.928;7.084;2023-01-20T02:14:21;5.00;77.70
37560;DHT22;23398;50.928;7.084;2023-01-20T02:19:41;4.80;78.00
37560;DHT22;23398;50.928;7.084;2023-01-20T02:22:20;4.80;78.40
37560;DHT22;23398;50.928;7.084;2023-01-20T02:25:12;4.70;78.50
37560;DHT22;23398;50.928;7.084;2023-01-20T02:33:32;4.50;79.80
37560;DHT22;23398;50.928;7.084;2023-01-20T02:36:08;4.40;80.60
37560;DHT22;23398;50.928;7.084;2023-01-20T02:43:52;4.40;82.10
37560;DHT22;23398;50.928;7.084;2023-01-20T02:46:35;4.50;82.80
37560;DHT22;23398;50.928;7.084;2023-01-20T02:51:55;4.60;82.90
37560;DHT22;23398;50.928;7.084;2023-01-20T02:54:26;4.60;82.90
37560;DHT22;23398;50.928;7.084;2023-01-20T02:56:53;4.60;82.90
37560;DHT22;23398;50.928;7.084;2023-01-20T02:59:23;4.70;83.10
37560;DHT22;23398;50.928;7.084;2023-01-20T03:01:55;4.70;83.20
37560;DHT22;23398;50.928;7.084;2023-01-20T03:04:25;4.80;83.30
37560;DHT22;23398;50.928;7.084;2023-01-20T03:06:53;4.80;83.30
37560;DHT22;23398;50.928;7.084;2023-01-20T03:09:29;4.80;83.20
37560;DHT22;23398;50.928;7.084;2023-01-20T03:11:59;4.90;83.20
37560;DHT22;23398;50.928;7.084;2023-01-20T03:14:26;4.90;83.10
37560;DHT22;23398;50.928;7.084;2023-01-20T03:16:52;5.00;83.10
37560;DHT22;23398;50.928;7.084;2023-01-20T03:19:18;5.00;83.20
37560;DHT22;23398;50.928;7.084;2023-01-20T03:21:44;5.10;83.30
37560;DHT22;23398;50.928;7.084;2023-01-20T03:24:10;5.10;83.30
37560;DHT22;23398;50.928;7.084;2023-01-20T03:26:36;5.20;83.20
37560;DHT22;23398;50.928;7.084;2023-01-20T03:29:06;5.20;82.90
37560;DHT22;23398;50.928;7.084;2023-01-20T03:31:38;5.20;82.50
37560;DHT22;23398;50.928;7.084;2023-01-20T03:34:07;5.30;82.10
37560;DHT22;23398;50.928;7.084;2023-01-20T03:36:35;5.30;81.40
37560;DHT22;23398;50.928;7.084;2023-01-20T03:39:02;5.30;80.90
37560;DHT22;23398;50.928;7.084;2023-01-20T03:41:50;5.20;80.40
37560;DHT22;23398;50.928;7.084;2023-01-20T03:47:09;5.20;80.40
37560;DHT22;23398;50.928;7.084;2023-01-20T03:58:40;5.10;81.20
37560;DHT22;23398;50.928;7.084;2023-01-20T04:01:08;5.00;81.40
37560;DHT22;23398;50.928;7.084;2023-01-20T04:03:37;5.10;81.30
37560;DHT22;23398;50.928;7.084;2023-01-20T04:06:06;5.10;81.40
37560;DHT22;23398;50.928;7.084;2023-01-20T04:08:36;5.10;81.40
37560;DHT22;23398;50.928;7.084;2023-01-20T04:11:04;5.10;81.30
37560;DHT22;23398;50.928;7.084;2023-01-20T04:13:31;5.10;81.20
37560;DHT22;23398;50.928;7.084;2023-01-20T04:15:57;5.10;81.30
37560;DHT22;23398;50.928;7.084;2023-01-20T04:18:24;5.10;81.40
37560;DHT22;23398;50.928;7.084;2023-01-20T04:20:53;5.10;81.50
37560;DHT22;23398;50.928;7.084;2023-01-20T04:23:23;5.10;81.50
37560;DHT22;23398;50.928;7.084;2023-01-20T04:25:51;5.10;81.40
37560;DHT22;23398;50.928;7.084;2023-01-20T04:28:16;5.10;81.40
37560;DHT22;23398;50.928;7.084;2023-01-20T04:30:42;5.20;81.60
37560;DHT22;23398;50.928;7.084;2023-01-20T04:33:08;5.20;81.60
37560;DHT22;23398;50.928;7.084;2023-01-20T04:35:33;5.20;81.80
37560;DHT22;23398;50.928;7.084;2023-01-20T04:37:58;5.20;81.80
37560;DHT22;23398;50.928;7.084;2023-01-20T04:40:24;5.30;81.80
37560;DHT22;23398;50.928;7.084;2023-01-20T04:42:50;5.30;81.50
37560;DHT22;23398;50.928;7.084;2023-01-20T04:45:16;5.30;81.50
37560;DHT22;23398;50.928;7.084;2023-01-20T04:47:42;5.40;81.50
37560;DHT22;23398;50.928;7.084;2023-01-20T04:50:09;5.40;81.40
37560;DHT22;23398;50.928;7.084;2023-01-20T04:52:35;5.50;81.30
37560;DHT22;23398;50.928;7.084;2023-01-20T04:55:01;5.50;81.10
37560;DHT22;23398;50.928;7.084;2023-01-20T04:57:27;5.50;80.80
37560;DHT22;23398;50.928;7.084;2023-01-20T04:59:52;5.50;80.80
37560;DHT22;23398;50.928;7.084;2023-01-20T05:02:18;5.60;80.80
37560;DHT22;23398;50.928;7.084;2023-01-20T05:04:44;5.60;80.70
37560;DHT22;23398;50.928;7.084;2023-01-20T05:07:10;5.60;80.80
37560;DHT22;23398;50.928;7.084;2023-01-20T05:09:35;5.70;80.70
37560;DHT22;23398;50.928;7.084;2023-01-20T05:12:01;5.70;80.60
37560;DHT22;23398;50.928;7.084;2023-01-20T05:14:26;5.70;80.40
37560;DHT22;23398;50.928;7.084;2023-01-20T05:16:52;5.80;80.30
37560;DHT22;23398;50.928;7.084;2023-01-20T05:19:17;5.80;79.80
37560;DHT22;23398;50.928;7.084;2023-01-20T05:21:43;5.80;79.40
37560;DHT22;23398;50.928;7.084;2023-01-20T05:24:09;5.90;79.20
37560;DHT22;23398;50.928;7.084;2023-01-20T05:26:34;5.90;79.00
37560;DHT22;23398;50.928;7.084;2023-01-20T05:29:00;5.90;78.70
37560;DHT22;23398;50.928;7.084;2023-01-20T05:31:27;5.90;78.50
37560;DHT22;23398;50.928;7.084;2023-01-20T05:33:53;5.90;78.20
37560;DHT22;23398;50.928;7.084;2023-01-20T05:36:18;6.00;78.00
37560;DHT22;23398;50.928;7.084;2023-01-20T05:38:44;5.90;78.30
37560;DHT22;23398;50.928;7.084;2023-01-20T05:41:09;6.00;77.40
37560;DHT22;23398;50.928;7.084;2023-01-20T05:43:35;6.00;77.20
37560;DHT22;23398;50.928;7.084;2023-01-20T05:46:01;6.00;77.00
37560;DHT22;23398;50.928;7.084;2023-01-20T05:48:26;6.00;76.80
37560;DHT22;23398;50.928;7.084;2023-01-20T05:50:52;6.00;76.70
37560;DHT22;23398;50.928;7.084;2023-01-20T05:53:18;6.00;76.60
37560;DHT22;23398;50.928;7.084;2023-01-20T05:55:44;6.00;76.50
37560;DHT22;23398;50.928;7.084;2023-01-20T05:58:10;6.00;76.30
37560;DHT22;23398;50.928;7.084;2023-01-20T06:00:36;6.00;76.10
37560;DHT22;23398;50.928;7.084;2023-01-20T06:03:01;5.90;75.90
37560;DHT22;23398;50.928;7.084;2023-01-20T06:05:27;5.90;75.90
37560;DHT22;23398;50.928;7.084;2023-01-20T06:07:54;5.90;75.90
37560;DHT22;23398;50.928;7.084;2023-01-20T06:10:19;5.90;75.70
37560;DHT22;23398;50.928;7.084;2023-01-20T06:12:50;5.90;75.60
37560;DHT22;23398;50.928;7.084;2023-01-20T06:15:16;5.90;75.50
37560;DHT22;23398;50.928;7.084;2023-01-20T06:17:41;5.90;75.60
37560;DHT22;23398;50.928;7.084;2023-01-20T06:20:09;5.90;75.60
37560;DHT22;23398;50.928;7.084;2023-01-20T06:22:34;5.90;75.40
37560;DHT22;23398;50.928;7.084;2023-01-20T06:25:00;5.90;75.30
37560;DHT22;23398;50.928;7.084;2023-01-20T06:27:26;5.90;75.30
37560;DHT22;23398;50.928;7.084;2023-01-20T06:29:51;5.90;75.50
37560;DHT22;23398;50.928;7.084;2023-01-20T06:32:17;5.90;75.60
37560;DHT22;23398;50.928;7.084;2023-01-20T06:34:43;5.90;75.70
37560;DHT22;23398;50.928;7.084;2023-01-20T06:37:08;5.90;75.70
37560;DHT22;23398;50.928;7.084;2023-01-20T06:39:34;5.90;75.70
37560;DHT22;23398;50.928;7.084;2023-01-20T06:41:59;5.90;75.70
37560;DHT22;23398;50.928;7.084;2023-01-20T06:44:26;5.90;75.60
37560;DHT22;23398;50.928;7.084;2023-01-20T06:46:51;5.90;76.30
37560;DHT22;23398;50.928;7.084;2023-01-20T06:49:17;5.90;75.60
37560;DHT22;23398;50.928;7.084;2023-01-20T06:51:43;5.90;75.30
37560;DHT22;23398;50.928;7.084;2023-01-20T06:54:09;6.00;75.10
37560;DHT22;23398;50.928;7.084;2023-01-20T06:56:35;6.00;74.80
37560;DHT22;23398;50.928;7.084;2023-01-20T06:59:00;6.00;74.60
37560;DHT22;23398;50.928;7.084;2023-01-20T07:01:28;6.00;74.50
37560;DHT22;23398;50.928;7.084;2023-01-20T07:03:54;6.00;74.40
37560;DHT22;23398;50.928;7.084;2023-01-20T07:06:34;6.00;74.30
37560;DHT22;23398;50.928;7.084;2023-01-20T07:09:02;6.00;74.00
37560;DHT22;23398;50.928;7.084;2023-01-20T07:11:29;6.00;74.00
37560;DHT22;23398;50.928;7.084;2023-01-20T07:14:00;6.00;73.90
37560;DHT22;23398;50.928;7.084;2023-01-20T07:16:25;6.00;74.10
37560;DHT22;23398;50.928;7.084;2023-01-20T07:18:51;6.00;74.20
37560;DHT22;23398;50.928;7.084;2023-01-20T07:21:18;6.00;74.10
37560;DHT22;23398;50.928;7.084;2023-01-20T07:23:44;6.00;74.00
37560;DHT22;23398;50.928;7.084;2023-01-20T07:26:12;5.90;73.80
37560;DHT22;23398;50.928;7.084;2023-01-20T07:28:38;5.90;73.80
37560;DHT22;23398;50.928;7.084;2023-01-20T07:31:15;5.90;73.80
37560;DHT22;23398;50.928;7.084;2023-01-20T07:33:41;5.90;73.70
37560;DHT22;23398;50.928;7.084;2023-01-20T07:36:08;5.90;73.80
37560;DHT22;23398;50.928;7.084;2023-01-20T07:38:35;5.90;73.70
37560;DHT22;23398;50.928;7.084;2023-01-20T07:41:03;5.90;73.80
37560;DHT22;23398;50.928;7.084;2023-01-20T07:43:29;5.90;73.80
37560;DHT22;23398;50.928;7.084;2023-01-20T07:45:56;5.90;73.80
37560;DHT22;23398;50.928;7.084;2023-01-20T07:48:22;5.90;73.80
37560;DHT22;23398;50.928;7.084;2023-01-20T07:50:48;5.90;73.80
37560;DHT22;23398;50.928;7.084;2023-01-20T07:53:13;5.90;73.80
37560;DHT22;23398;50.928;7.084;2023-01-20T07:55:39;5.90;73.90
37560;DHT22;23398;50.928;7.084;2023-01-20T07:58:04;5.90;73.90
37560;DHT22;23398;50.928;7.084;2023-01-20T08:00:30;5.90;73.90
37560;DHT22;23398;50.928;7.084;2023-01-20T08:02:55;5.90;73.90
37560;DHT22;23398;50.928;7.084;2023-01-20T08:05:21;5.90;73.80
37560;DHT22;23398;50.928;7.084;2023-01-20T08:07:51;6.00;73.60
37560;DHT22;23398;50.928;7.084;2023-01-20T08:10:17;6.00;73.40
37560;DHT22;23398;50.928;7.084;2023-01-20T08:12:42;6.00;73.30
37560;DHT22;23398;50.928;7.084;2023-01-20T08:15:08;6.00;73.20
37560;DHT22;23398;50.928;7.084;2023-01-20T08:17:34;6.00;73.10
37560;DHT22;23398;50.928;7.084;2023-01-20T08:20:00;6.00;73.10
37560;DHT22;23398;50.928;7.084;2023-01-20T08:22:25;6.00;73.00
37560;DHT22;23398;50.928;7.084;2023-01-20T08:24:51;6.20;73.00
37560;DHT22;23398;50.928;7.084;2023-01-20T08:27:16;6.10;72.80
37560;DHT22;23398;50.928;7.084;2023-01-20T08:29:42;6.10;72.70
37560;DHT22;23398;50.928;7.084;2023-01-20T08:32:07;6.10;72.70
37560;DHT22;23398;50.928;7.084;2023-01-20T08:34:33;6.10;72.50
37560;DHT22;23398;50.928;7.084;2023-01-20T08:36:59;6.10;72.20
37560;DHT22;23398;50.928;7.084;2023-01-20T08:39:25;6.10;72.10
37560;DHT22;23398;50.928;7.084;2023-01-20T08:41:51;6.20;72.30
37560;DHT22;23398;50.928;7.084;2023-01-20T08:44:16;6.20;72.30
37560;DHT22;23398;50.928;7.084;2023-01-20T08:46:43;6.20;72.30
37560;DHT22;23398;50.928;7.084;2023-01-20T08:49:12;6.30;72.50
37560;DHT22;23398;50.928;7.084;2023-01-20T08:51:38;6.30;72.20
37560;DHT22;23398;50.928;7.084;2023-01-20T08:54:04;6.40;72.10
37560;DHT22;23398;50.928;7.084;2023-01-20T08:56:30;6.40;71.90
37560;DHT22;23398;50.928;7.084;2023-01-20T08:58:56;6.50;71.90
37560;DHT22;23398;50.928;7.084;2023-01-20T09:01:25;6.50;71.80
37560;DHT22;23398;50.928;7.084;2023-01-20T09:03:52;6.50;71.50
37560;DHT22;23398;50.928;7.084;2023-01-20T09:06:18;6.60;71.30
37560;DHT22;23398;50.928;7.084;2023-01-20T09:08:46;6.60;71.60
37560;DHT22;23398;50.928;7.084;2023-01-20T09:11:14;6.70;72.50
37560;DHT22;23398;50.928;7.084;2023-01-20T09:13:41;6.80;72.50
37560;DHT22;23398;50.928;7.084;2023-01-20T09:16:07;7.00;75.00
37560;DHT22;23398;50.928;7.084;2023-01-20T09:18:35;7.40;77.50
37560;DHT22;23398;50.928;7.084;2023-01-20T09:21:01;7.80;78.10
37560;DHT22;23398;50.928;7.084;2023-01-20T09:23:32;8.40;78.40
37560;DHT22;23398;50.928;7.084;2023-01-20T09:25:59;8.90;77.30
37560;DHT22;23398;50.928;7.084;2023-01-20T09:28:24;9.40;74.50
37560;DHT22;23398;50.928;7.084;2023-01-20T09:30:59;9.80;71.70
37560;DHT22;23398;50.928;7.084;2023-01-20T09:33:25;10.00;67.60
37560;DHT22;23398;50.928;7.084;2023-01-20T09:35:55;10.20;66.50
37560;DHT22;23398;50.928;7.084;2023-01-20T09:38:21;10.30;66.10
37560;DHT22;23398;50.928;7.084;2023-01-20T09:41:25;10.50;66.70
37560;DHT22;23398;50.928;7.084;2023-01-20T09:49:42;11.50;65.50
37560;DHT22;23398;50.928;7.084;2023-01-20T09:52:38;11.90;66.50
37560;DHT22;23398;50.928;7.084;2023-01-20T09:58:06;13.00;65.00
37560;DHT22;23398;50.928;7.084;2023-01-20T10:00:37;13.40;64.50
37560;DHT22;23398;50.928;7.084;2023-01-20T10:05:53;14.10;58.90
37560;DHT22;23398;50.928;7.084;2023-01-20T10:08:33;14.20;57.90
37560;DHT22;23398;50.928;7.084;2023-01-20T10:11:09;14.10;57.20
37560;DHT22;23398;50.928;7.084;2023-01-20T10:13:40;14.00;56.40
37560;DHT22;23398;50.928;7.084;2023-01-20T10:16:17;13.70;55.50
37560;DHT22;23398;50.928;7.084;2023-01-20T10:18:50;13.80;55.50
37560;DHT22;23398;50.928;7.084;2023-01-20T10:21:37;13.10;55.10
37560;DHT22;23398;50.928;7.084;2023-01-20T10:24:23;12.70;54.60
37560;DHT22;23398;50.928;7.084;2023-01-20T10:27:03;12.30;54.80
37560;DHT22;23398;50.928;7.084;2023-01-20T10:29:53;12.00;55.60
37560;DHT22;23398;50.928;7.084;2023-01-20T10:34:57;11.40;56.30
37560;DHT22;23398;50.928;7.084;2023-01-20T10:37:23;11.20;56.20
37560;DHT22;23398;50.928;7.084;2023-01-20T10:40:02;11.00;56.40
37560;DHT22;23398;50.928;7.084;2023-01-20T10:42:29;10.70;56.60
37560;DHT22;23398;50.928;7.084;2023-01-20T10:44:57;10.50;57.00
37560;DHT22;23398;50.928;7.084;2023-01-20T10:47:42;10.40;57.20
37560;DHT22;23398;50.928;7.084;2023-01-20T10:58:36;10.00;58.50
37560;DHT22;23398;50.928;7.084;2023-01-20T11:01:04;10.00;58.80
37560;DHT22;23398;50.928;7.084;2023-01-20T11:03:45;9.90;59.60
37560;DHT22;23398;50.928;7.084;2023-01-20T11:06:20;9.90;58.90
37560;DHT22;23398;50.928;7.084;2023-01-20T11:08:46;9.90;59.20
37560;DHT22;23398;50.928;7.084;2023-01-20T11:11:15;9.90;59.30
37560;DHT22;23398;50.928;7.084;2023-01-20T11:13:42;9.90;59.20
37560;DHT22;23398;50.928;7.084;2023-01-20T11:16:16;9.90;59.20
37560;DHT22;23398;50.928;7.084;2023-01-20T11:18:41;9.80;58.90
37560;DHT22;23398;50.928;7.084;2023-01-20T11:21:11;9.70;59.10
37560;DHT22;23398;50.928;7.084;2023-01-20T11:23:44;9.60;59.20
37560;DHT22;23398;50.928;7.084;2023-01-20T11:26:31;9.60;59.10
37560;DHT22;23398;50.928;7.084;2023-01-20T11:31:44;9.50;59.20
37560;DHT22;23398;50.928;7.084;2023-01-20T11:34:31;9.40;59.30
37560;DHT22;23398;50.928;7.084;2023-01-20T11:37:16;9.30;59.10
37560;DHT22;23398;50.928;7.084;2023-01-20T11:42:17;9.20;59.50
37560;DHT22;23398;50.928;7.084;2023-01-20T11:47:32;9.10;59.60
37560;DHT22;23398;50.928;7.084;2023-01-20T11:52:30;9.00;59.70
37560;DHT22;23398;50.928;7.084;2023-01-20T12:00:42;9.00;59.60
37560;DHT22;23398;50.928;7.084;2023-01-20T12:11:00;9.00;60.00
37560;DHT22;23398;50.928;7.084;2023-01-20T12:13:37;9.00;59.90
37560;DHT22;23398;50.928;7.084;2023-01-20T12:16:26;8.90;59.80
37560;DHT22;23398;50.928;7.084;2023-01-20T12:18:56;8.90;60.00
37560;DHT22;23398;50.928;7.084;2023-01-20T12:21:27;8.90;59.90
37560;DHT22;23398;50.928;7.084;2023-01-20T12:24:11;8.80;59.70
37560;DHT22;23398;50.928;7.084;2023-01-20T12:26:40;8.80;59.90
37560;DHT22;23398;50.928;7.084;2023-01-20T12:29:32;8.80;60.00
37560;DHT22;23398;50.928;7.084;2023-01-20T12:32:01;8.80;60.00
37560;DHT22;23398;50.928;7.084;2023-01-20T12:34:28;9.00;60.50
37560;DHT22;23398;50.928;7.084;2023-01-20T12:37:02;8.70;60.10
37560;DHT22;23398;50.928;7.084;2023-01-20T13:01:04;8.40;60.80
37560;DHT22;23398;50.928;7.084;2023-01-20T13:06:45;8.30;61.20
37560;DHT22;23398;50.928;7.084;2023-01-20T13:15:17;8.20;62.20
37560;DHT22;23398;50.928;7.084;2023-01-20T13:20:42;8.30;63.30
37560;DHT22;23398;50.928;7.084;2023-01-20T13:23:15;8.30;63.60
37560;DHT22;23398;50.928;7.084;2023-01-20T13:25:43;8.30;64.10
37560;DHT22;23398;50.928;7.084;2023-01-20T13:28:21;8.30;64.30
37560;DHT22;23398;50.928;7.084;2023-01-20T13:30:49;8.40;64.80
37560;DHT22;23398;50.928;7.084;2023-01-20T13:33:39;8.40;64.80
37560;DHT22;23398;50.928;7.084;2023-01-20T13:36:22;8.50;64.90
37560;DHT22;23398;50.928;7.084;2023-01-20T13:38:49;8.50;64.90
37560;DHT22;23398;50.928;7.084;2023-01-20T13:41:47;8.50;64.80
37560;DHT22;23398;50.928;7.084;2023-01-20T13:46:58;8.50;65.10
37560;DHT22;23398;50.928;7.084;2023-01-20T13:49:27;8.50;65.30
37560;DHT22;23398;50.928;7.084;2023-01-20T13:51:53;8.40;65.20
37560;DHT22;23398;50.928;7.084;2023-01-20T13:56:50;8.30;65.40
37560;DHT22;23398;50.928;7.084;2023-01-20T13:59:15;8.30;65.40
37560;DHT22;23398;50.928;7.084;2023-01-20T14:01:41;8.20;65.50
37560;DHT22;23398;50.928;7.084;2023-01-20T14:04:15;8.10;65.60
37560;DHT22;23398;50.928;7.084;2023-01-20T14:06:50;8.10;65.90
37560;DHT22;23398;50.928;7.084;2023-01-20T14:09:20;8.00;66.10
37560;DHT22;23398;50.928;7.084;2023-01-20T14:11:50;7.90;66.20
37560;DHT22;23398;50.928;7.084;2023-01-20T14:14:26;7.80;66.40
37560;DHT22;23398;50.928;7.084;2023-01-20T14:16:51;7.80;66.70
37560;DHT22;23398;50.928;7.084;2023-01-20T14:19:29;7.70;66.60
37560;DHT22;23398;50.928;7.084;2023-01-20T14:22:15;7.70;67.10
37560;DHT22;23398;50.928;7.084;2023-01-20T14:24:46;7.60;67.10
37560;DHT22;23398;50.928;7.084;2023-01-20T14:27:23;7.50;67.30
37560;DHT22;23398;50.928;7.084;2023-01-20T14:29:53;7.50;67.60
37560;DHT22;23398;50.928;7.084;2023-01-20T14:32:27;7.40;67.60
37560;DHT22;23398;50.928;7.084;2023-01-20T14:34:54;7.30;67.70
37560;DHT22;23398;50.928;7.084;2023-01-20T14:39:49;7.20;68.10
37560;DHT22;23398;50.928;7.084;2023-01-20T14:42:20;7.20;68.50
37560;DHT22;23398;50.928;7.084;2023-01-20T14:44:47;7.10;68.80
37560;DHT22;23398;50.928;7.084;2023-01-20T14:47:13;7.00;68.90
37560;DHT22;23398;50.928;7.084;2023-01-20T14:49:40;7.00;69.10
37560;DHT22;23398;50.928;7.084;2023-01-20T14:52:12;6.90;69.50
37560;DHT22;23398;50.928;7.084;2023-01-20T14:54:44;6.90;69.90
37560;DHT22;23398;50.928;7.084;2023-01-20T14:57:33;6.80;70.30
37560;DHT22;23398;50.928;7.084;2023-01-20T15:00:30;6.80;70.80
37560;DHT22;23398;50.928;7.084;2023-01-20T15:03:16;6.70;71.10
37560;DHT22;23398;50.928;7.084;2023-01-20T15:19:30;6.50;71.50
37560;DHT22;23398;50.928;7.084;2023-01-20T15:22:14;6.50;71.80
37560;DHT22;23398;50.928;7.084;2023-01-20T15:24:41;6.50;71.90
37560;DHT22;23398;50.928;7.084;2023-01-20T15:27:24;6.40;71.70
37560;DHT22;23398;50.928;7.084;2023-01-20T15:30:14;6.40;72.20
37560;DHT22;23398;50.928;7.084;2023-01-20T15:32:40;6.40;72.60
37560;DHT22;23398;50.928;7.084;2023-01-20T15:35:05;6.30;72.30
37560;DHT22;23398;50.928;7.084;2023-01-20T15:37:31;6.30;72.50
37560;DHT22;23398;50.928;7.084;2023-01-20T15:39:57;6.30;72.70
37560;DHT22;23398;50.928;7.084;2023-01-20T15:42:23;6.20;73.00
37560;DHT22;23398;50.928;7.084;2023-01-20T15:44:49;6.20;72.90
37560;DHT22;23398;50.928;7.084;2023-01-20T15:49:44;6.10;73.10
37560;DHT22;23398;50.928;7.084;2023-01-20T15:52:09;6.10;73.30
37560;DHT22;23398;50.928;7.084;2023-01-20T15:54:35;6.10;73.30
37560;DHT22;23398;50.928;7.084;2023-01-20T15:57:01;6.00;73.30
37560;DHT22;23398;50.928;7.084;2023-01-20T15:59:26;6.00;73.30
37560;DHT22;23398;50.928;7.084;2023-01-20T16:01:55;6.00;73.40
37560;DHT22;23398;50.928;7.084;2023-01-20T16:04:21;6.00;73.50
37560;DHT22;23398;50.928;7.084;2023-01-20T16:06:47;6.00;73.50
37560;DHT22;23398;50.928;7.084;2023-01-20T16:09:30;5.90;73.50
37560;DHT22;23398;50.928;7.084;2023-01-20T16:12:01;5.90;73.80
37560;DHT22;23398;50.928;7.084;2023-01-20T16:14:27;5.90;73.40
37560;DHT22;23398;50.928;7.084;2023-01-20T16:16:53;5.90;73.50
37560;DHT22;23398;50.928;7.084;2023-01-20T16:19:19;5.80;73.70
37560;DHT22;23398;50.928;7.084;2023-01-20T16:21:45;5.80;73.90
37560;DHT22;23398;50.928;7.084;2023-01-20T16:24:11;5.80;73.90
37560;DHT22;23398;50.928;7.084;2023-01-20T16:26:36;5.80;73.90
37560;DHT22;23398;50.928;7.084;2023-01-20T16:29:02;5.80;73.70
37560;DHT22;23398;50.928;7.084;2023-01-20T16:31:29;5.70;73.50
37560;DHT22;23398;50.928;7.084;2023-01-20T16:33:55;5.70;73.40
37560;DHT22;23398;50.928;7.084;2023-01-20T16:36:22;5.70;73.40
37560;DHT22;23398;50.928;7.084;2023-01-20T16:38:48;5.60;73.40
37560;DHT22;23398;50.928;7.084;2023-01-20T16:41:22;5.60;73.40
37560;DHT22;23398;50.928;7.084;2023-01-20T16:43:49;5.50;73.60
37560;DHT22;23398;50.928;7.084;2023-01-20T16:46:27;5.50;73.60
37560;DHT22;23398;50.928;7.084;2023-01-20T16:48:53;5.50;73.70
37560;DHT22;23398;50.928;7.084;2023-01-20T16:51:23;5.40;73.40
37560;DHT22;23398;50.928;7.084;2023-01-20T16:53:51;5.40;73.40
37560;DHT22;23398;50.928;7.084;2023-01-20T16:56:19;5.40;73.40
37560;DHT22;23398;50.928;7.084;2023-01-20T16:58:46;5.30;73.30
37560;DHT22;23398;50.928;7.084;2023-01-20T17:01:12;5.30;73.30
37560;DHT22;23398;50.928;7.084;2023-01-20T17:03:38;5.20;73.30
37560;DHT22;23398;50.928;7.084;2023-01-20T17:06:15;5.10;73.30
37560;DHT22;23398;50.928;7.084;2023-01-20T17:08:45;5.10;73.50
37560;DHT22;23398;50.928;7.084;2023-01-20T17:11:16;5.00;73.40
37560;DHT22;23398;50.928;7.084;2023-01-20T17:13:42;4.90;73.50
37560;DHT22;23398;50.928;7.084;2023-01-20T17:16:07;4.90;73.40
37560;DHT22;23398;50.928;7.084;2023-01-20T17:18:33;4.80;73.50
37560;DHT22;23398;50.928;7.084;2023-01-20T17:21:05;4.70;73.60
37560;DHT22;23398;50.928;7.084;2023-01-20T17:23:32;4.70;73.80
37560;DHT22;23398;50.928;7.084;2023-01-20T17:26:00;4.60;73.70
37560;DHT22;23398;50.928;7.084;2023-01-20T17:28:26;4.50;73.80
37560;DHT22;23398;50.928;7.084;2023-01-20T17:30:52;4.40;73.90
37560;DHT22;23398;50.928;7.084;2023-01-20T17:33:17;4.40;74.10
37560;DHT22;23398;50.928;7.084;2023-01-20T17:35:43;4.30;74.30
37560;DHT22;23398;50.928;7.084;2023-01-20T17:38:08;4.30;74.50
37560;DHT22;23398;50.928;7.084;2023-01-20T17:40:34;4.20;74.70
37560;DHT22;23398;50.928;7.084;2023-01-20T17:43:00;4.10;74.80
37560;DHT22;23398;50.928;7.084;2023-01-20T17:45:27;4.10;75.10
37560;DHT22;23398;50.928;7.084;2023-01-20T17:47:55;4.10;75.40
37560;DHT22;23398;50.928;7.084;2023-01-20T17:50:20;4.00;75.30
37560;DHT22;23398;50.928;7.084;2023-01-20T17:52:46;4.00;75.70
37560;DHT22;23398;50.928;7.084;2023-01-20T17:55:11;4.00;75.70
37560;DHT22;23398;50.928;7.084;2023-01-20T17:57:37;3.90;75.90
37560;DHT22;23398;50.928;7.084;2023-01-20T18:00:03;3.90;76.10
37560;DHT22;23398;50.928;7.084;2023-01-20T18:02:30;3.90;76.00
37560;DHT22;23398;50.928;7.084;2023-01-20T18:04:55;3.90;76.00
37560;DHT22;23398;50.928;7.084;2023-01-20T18:07:21;3.80;76.00
37560;DHT22;23398;50.928;7.084;2023-01-20T18:09:46;3.80;76.00